Terminal Aerodrome Forecast
Issued by NWS

Home | Current Version | Previous Version | Text Only | Print | Product List | Glossary On
Versions: 1 2 3 4 5 6 7 8 9 10 11 12 13 14 15 16 17 18 19
000
FTUS46 KEKA 260804 AAA
TAFCEC
TAF AMD
KCEC 260804Z 2608/2706 10003KT 6SM BR FEW250
      TEMPO 2608/2610 3SM BR SCT002
     FM261200 15006KT 5SM BR SCT012 SCT250
     FM261600 16008KT P6SM SCT100 BKN250
     FM262000 17011KT P6SM SCT100 BKN200
     FM270200 17012G20KT P6SM SCT015 BKN200=

USA.gov is the U.S. government's official web portal to all federal, state and local government web resources and services.